Wetterdaten: Sonntag, 12.07.2015
Datum Zeit Auen-Temp. Temp gefhlt Luftfeuchte Luftdruck Regen Wind Richtung Richtung Taupunkt Windben
12.07.2015 00:00 16,2 C 16,0 C 68 % 1014,3 hPa 0,0 mm 0,0 km/h (0 Bft) S-SO 157 10,3 C 0,0 km/h (0 Bft)
12.07.2015 00:05 16,1 C 15,8 C 69 % 1014,3 hPa 0,0 mm 0,0 km/h (0 Bft) O-NO 67 10,4 C 0,0 km/h (0 Bft)
12.07.2015 00:10 16,3 C 16,2 C 69 % 1014,3 hPa 0,0 mm 0,0 km/h (0 Bft) O-SO 112 10,6 C 0,0 km/h (0 Bft)
12.07.2015 00:15 16,5 C 16,3 C 69 % 1014,3 hPa 0,0 mm 0,3 km/h (0 Bft) S-SO 157 10,8 C 4,1 km/h (1 Bft)
12.07.2015 00:20 16,4 C 16,3 C 69 % 1014,3 hPa 0,0 mm 1,3 km/h (1 Bft) SO 135 10,7 C 0,0 km/h (0 Bft)
12.07.2015 00:25 16,7 C 16,7 C 68 % 1014,3 hPa 0,0 mm 3,6 km/h (1 Bft) S 180 10,8 C 11,7 km/h (2 Bft)
12.07.2015 00:30 17,8 C 17,6 C 66 % 1014,1 hPa 0,0 mm 6,5 km/h (2 Bft) S-SO 157 11,4 C 15,3 km/h (3 Bft)
12.07.2015 00:35 17,9 C 17,8 C 64 % 1014,1 hPa 0,0 mm 7,5 km/h (2 Bft) S 180 11,0 C 10,9 km/h (2 Bft)
12.07.2015 00:40 18,1 C 18,1 C 62 % 1014,1 hPa 0,0 mm 7,5 km/h (2 Bft) S 180 10,7 C 9,1 km/h (2 Bft)
12.07.2015 00:45 18,0 C 18,2 C 61 % 1014,1 hPa 0,0 mm 6,5 km/h (2 Bft) S-SO 157 10,4 C 0,0 km/h (0 Bft)
12.07.2015 00:50 17,5 C 18,1 C 62 % 1013,9 hPa 0,0 mm 3,4 km/h (1 Bft) S 180 10,1 C 4,9 km/h (1 Bft)
12.07.2015 00:55 17,4 C 17,9 C 62 % 1013,9 hPa 0,0 mm 1,3 km/h (1 Bft) NW 315 10,0 C 0,0 km/h (0 Bft)
12.07.2015 01:00 16,5 C 17,3 C 64 % 1013,9 hPa 0,0 mm 0,8 km/h (0 Bft) NO 45 9,7 C 0,0 km/h (0 Bft)
12.07.2015 01:05 16,3 C 16,8 C 64 % 1013,9 hPa 0,0 mm 0,3 km/h (0 Bft) NO 45 9,5 C 0,0 km/h (0 Bft)
12.07.2015 01:10 16,2 C 16,2 C 66 % 1014,1 hPa 0,0 mm 0,0 km/h (0 Bft) O-NO 67 9,8 C 0,0 km/h (0 Bft)
12.07.2015 01:15 16,2 C 16,1 C 66 % 1014,1 hPa 0,0 mm 0,0 km/h (0 Bft) O 90 9,8 C 0,0 km/h (0 Bft)
12.07.2015 01:20 16,2 C 16,0 C 68 % 1014,1 hPa 0,0 mm 0,0 km/h (0 Bft) O 90 10,3 C 0,0 km/h (0 Bft)
12.07.2015 01:25 15,9 C 15,7 C 69 % 1014,1 hPa 0,0 mm 0,0 km/h (0 Bft) O-NO 67 10,2 C 0,0 km/h (0 Bft)
12.07.2015 01:30 15,9 C 15,7 C 69 % 1014,1 hPa 0,0 mm 0,3 km/h (0 Bft) SW 225 10,2 C 6,0 km/h (2 Bft)
12.07.2015 01:35 16,0 C 15,8 C 70 % 1014,1 hPa 0,0 mm 1,6 km/h (1 Bft) S-SO 157 10,5 C 7,0 km/h (2 Bft)
12.07.2015 01:40 15,7 C 15,8 C 70 % 1014,1 hPa 0,0 mm 2,1 km/h (1 Bft) N-NO 22 10,2 C 0,0 km/h (0 Bft)
12.07.2015 01:45 15,3 C 15,6 C 69 % 1014,1 hPa 0,0 mm 1,6 km/h (1 Bft) N-NO 22 9,6 C 0,0 km/h (0 Bft)
12.07.2015 01:51 15,6 C 15,4 C 70 % 1014,2 hPa 0,0 mm 0,3 km/h (0 Bft) O-SO 112 10,1 C 0,0 km/h (0 Bft)
12.07.2015 01:55 15,6 C 15,4 C 70 % 1014,2 hPa 0,0 mm 0,3 km/h (0 Bft) O-SO 112 10,1 C 0,0 km/h (0 Bft)
12.07.2015 02:00 15,8 C 15,6 C 70 % 1014,2 hPa 0,0 mm 1,0 km/h (0 Bft) O-NO 67 10,3 C 0,0 km/h (0 Bft)
12.07.2015 02:05 15,6 C 15,6 C 70 % 1014,2 hPa 0,0 mm 2,1 km/h (1 Bft) S 180 10,1 C 7,0 km/h (2 Bft)
12.07.2015 02:10 16,8 C 16,7 C 66 % 1014,1 hPa 0,0 mm 5,7 km/h (1 Bft) S 180 10,4 C 15,0 km/h (3 Bft)
12.07.2015 02:15 17,2 C 17,2 C 64 % 1014,1 hPa 0,0 mm 8,8 km/h (2 Bft) NO 45 10,3 C 15,0 km/h (3 Bft)
12.07.2015 02:20 17,8 C 17,7 C 61 % 1014,1 hPa 0,0 mm 9,6 km/h (2 Bft) W-SW 247 10,2 C 18,1 km/h (3 Bft)
12.07.2015 02:25 17,7 C 17,8 C 60 % 1014,1 hPa 0,0 mm 9,1 km/h (2 Bft) S-SO 157 9,8 C 9,3 km/h (2 Bft)
12.07.2015 02:30 18,0 C 18,0 C 59 % 1014,0 hPa 0,0 mm 9,6 km/h (2 Bft) SO 135 9,9 C 15,0 km/h (3 Bft)
12.07.2015 02:35 18,1 C 18,1 C 59 % 1014,0 hPa 0,0 mm 9,3 km/h (2 Bft) S-SO 157 10,0 C 11,7 km/h (2 Bft)
12.07.2015 02:40 17,8 C 18,1 C 58 % 1014,0 hPa 0,0 mm 8,5 km/h (2 Bft) S 180 9,4 C 11,4 km/h (2 Bft)
12.07.2015 02:45 16,9 C 18,0 C 59 % 1014,0 hPa 0,0 mm 7,0 km/h (2 Bft) W 270 8,8 C 4,7 km/h (1 Bft)
12.07.2015 02:50 15,6 C 17,1 C 63 % 1013,9 hPa 0,0 mm 3,4 km/h (1 Bft) NO 45 8,6 C 0,0 km/h (0 Bft)
12.07.2015 02:55 15,1 C 16,3 C 66 % 1013,9 hPa 0,0 mm 1,3 km/h (1 Bft) SO 135 8,8 C 2,6 km/h (1 Bft)
12.07.2015 03:00 15,6 C 16,1 C 67 % 1013,9 hPa 0,0 mm 2,8 km/h (1 Bft) S-SW 202 9,5 C 8,8 km/h (2 Bft)
12.07.2015 03:05 16,6 C 16,6 C 64 % 1013,9 hPa 0,0 mm 6,0 km/h (2 Bft) SW 225 9,8 C 10,4 km/h (2 Bft)
12.07.2015 03:10 16,4 C 16,8 C 63 % 1013,8 hPa 0,0 mm 7,3 km/h (2 Bft) S 180 9,3 C 3,9 km/h (1 Bft)
12.07.2015 03:15 15,9 C 16,8 C 66 % 1013,8 hPa 0,0 mm 6,0 km/h (2 Bft) S 180 9,6 C 3,1 km/h (1 Bft)
12.07.2015 03:20 15,6 C 16,5 C 66 % 1013,8 hPa 0,0 mm 6,0 km/h (2 Bft) N-NO 22 9,3 C 4,4 km/h (1 Bft)
12.07.2015 03:25 15,2 C 16,4 C 67 % 1013,8 hPa 0,0 mm 5,7 km/h (1 Bft) S 180 9,1 C 0,0 km/h (0 Bft)
12.07.2015 03:30 14,7 C 15,8 C 68 % 1013,7 hPa 0,0 mm 3,1 km/h (1 Bft) SW 225 8,9 C 4,9 km/h (1 Bft)
12.07.2015 03:35 14,5 C 15,4 C 69 % 1013,7 hPa 0,0 mm 1,6 km/h (1 Bft) O-NO 67 8,9 C 0,0 km/h (0 Bft)
12.07.2015 03:40 14,3 C 14,8 C 70 % 1013,7 hPa 0,0 mm 1,0 km/h (0 Bft) SO 135 8,9 C 0,0 km/h (0 Bft)
12.07.2015 03:45 14,3 C 14,5 C 70 % 1013,7 hPa 0,0 mm 0,3 km/h (0 Bft) SO 135 8,9 C 0,0 km/h (0 Bft)
12.07.2015 03:50 14,2 C 14,2 C 71 % 1013,7 hPa 0,0 mm 0,8 km/h (0 Bft) S 180 9,0 C 7,0 km/h (2 Bft)
12.07.2015 03:55 14,3 C 14,3 C 71 % 1013,7 hPa 0,0 mm 1,0 km/h (0 Bft) S 180 9,1 C 0,0 km/h (0 Bft)
12.07.2015 04:00 14,3 C 14,3 C 72 % 1013,7 hPa 0,0 mm 1,6 km/h (1 Bft) S-SO 157 9,3 C 0,0 km/h (0 Bft)
12.07.2015 04:05 14,2 C 14,3 C 72 % 1013,7 hPa 0,0 mm 1,0 km/h (0 Bft) SO 135 9,2 C 0,0 km/h (0 Bft)
12.07.2015 04:10 14,5 C 14,4 C 72 % 1013,9 hPa 0,0 mm 0,3 km/h (0 Bft) S 180 9,5 C 4,7 km/h (1 Bft)
12.07.2015 04:15 14,2 C 14,3 C 71 % 1013,9 hPa 0,0 mm 0,0 km/h (0 Bft) SO 135 9,0 C 0,0 km/h (0 Bft)
12.07.2015 04:20 14,1 C 14,2 C 72 % 1013,9 hPa 0,0 mm 0,0 km/h (0 Bft) S 180 9,1 C 0,0 km/h (0 Bft)
12.07.2015 04:25 13,9 C 14,0 C 72 % 1013,9 hPa 0,0 mm 0,0 km/h (0 Bft) S-SW 202 8,9 C 0,0 km/h (0 Bft)
12.07.2015 04:30 14,2 C 14,2 C 72 % 1013,6 hPa 0,0 mm 0,3 km/h (0 Bft) S 180 9,2 C 3,4 km/h (1 Bft)
12.07.2015 04:35 14,4 C 14,3 C 73 % 1013,6 hPa 0,0 mm 0,5 km/h (0 Bft) SO 135 9,6 C 2,8 km/h (1 Bft)
12.07.2015 04:40 14,2 C 14,3 C 73 % 1013,6 hPa 0,0 mm 1,0 km/h (0 Bft) O-SO 112 9,4 C 0,0 km/h (0 Bft)
12.07.2015 04:45 13,9 C 14,3 C 73 % 1013,6 hPa 0,0 mm 0,8 km/h (0 Bft) O-NO 67 9,1 C 0,0 km/h (0 Bft)
12.07.2015 04:50 13,6 C 13,8 C 73 % 1013,6 hPa 0,0 mm 0,0 km/h (0 Bft) O-NO 67 8,9 C 0,0 km/h (0 Bft)
12.07.2015 04:55 13,4 C 13,5 C 73 % 1013,6 hPa 0,0 mm 0,0 km/h (0 Bft) O-NO 67 8,7 C 0,0 km/h (0 Bft)
12.07.2015 05:00 13,4 C 13,3 C 73 % 1013,6 hPa 0,0 mm 0,0 km/h (0 Bft) W-SW 247 8,7 C 0,0 km/h (0 Bft)
12.07.2015 05:05 13,5 C 13,3 C 74 % 1013,6 hPa 0,0 mm 0,0 km/h (0 Bft) W-SW 247 9,0 C 0,0 km/h (0 Bft)
12.07.2015 05:10 13,4 C 13,2 C 74 % 1013,6 hPa 0,0 mm 0,0 km/h (0 Bft) SW 225 8,9 C 0,0 km/h (0 Bft)
12.07.2015 05:15 13,1 C 12,9 C 74 % 1013,6 hPa 0,0 mm 0,0 km/h (0 Bft) W-SW 247 8,6 C 0,0 km/h (0 Bft)
12.07.2015 05:20 12,9 C 12,7 C 75 % 1013,6 hPa 0,0 mm 0,0 km/h (0 Bft) W-SW 247 8,6 C 0,0 km/h (0 Bft)
12.07.2015 05:25 12,9 C 12,7 C 76 % 1013,6 hPa 0,0 mm 0,0 km/h (0 Bft) W-SW 247 8,8 C 0,0 km/h (0 Bft)
12.07.2015 05:30 12,8 C 12,6 C 76 % 1013,8 hPa 0,0 mm 0,0 km/h (0 Bft) W-SW 247 8,7 C 0,0 km/h (0 Bft)
12.07.2015 05:35 12,9 C 12,7 C 76 % 1013,8 hPa 0,0 mm 0,0 km/h (0 Bft) W-SW 247 8,8 C 0,0 km/h (0 Bft)
12.07.2015 05:40 12,8 C 12,6 C 76 % 1013,8 hPa 0,0 mm 0,0 km/h (0 Bft) S 180 8,7 C 0,0 km/h (0 Bft)
12.07.2015 05:45 13,0 C 12,7 C 76 % 1013,8 hPa 0,0 mm 0,0 km/h (0 Bft) O-NO 67 8,9 C 0,0 km/h (0 Bft)
12.07.2015 05:50 13,0 C 12,7 C 77 % 1013,9 hPa 0,0 mm 0,0 km/h (0 Bft) O-NO 67 9,1 C 0,0 km/h (0 Bft)
12.07.2015 05:55 13,2 C 12,9 C 77 % 1013,9 hPa 0,0 mm 0,0 km/h (0 Bft) O 90 9,3 C 0,0 km/h (0 Bft)
12.07.2015 06:00 13,0 C 12,8 C 76 % 1013,9 hPa 0,0 mm 0,0 km/h (0 Bft) O-NO 67 8,9 C 0,0 km/h (0 Bft)
12.07.2015 06:05 12,9 C 12,7 C 77 % 1013,9 hPa 0,0 mm 0,0 km/h (0 Bft) O-NO 67 9,0 C 0,0 km/h (0 Bft)
12.07.2015 06:10 12,9 C 12,7 C 77 % 1013,7 hPa 0,0 mm 0,0 km/h (0 Bft) O-NO 67 9,0 C 0,0 km/h (0 Bft)
12.07.2015 06:15 13,0 C 12,8 C 76 % 1013,7 hPa 0,0 mm 0,0 km/h (0 Bft) O-NO 67 8,9 C 0,0 km/h (0 Bft)
12.07.2015 06:20 12,9 C 12,8 C 77 % 1013,7 hPa 0,0 mm 0,0 km/h (0 Bft) O-NO 67 9,0 C 0,0 km/h (0 Bft)
12.07.2015 06:25 13,2 C 13,1 C 76 % 1013,7 hPa 0,0 mm 0,0 km/h (0 Bft) O-NO 67 9,1 C 0,0 km/h (0 Bft)
12.07.2015 06:30 13,4 C 14,5 C 74 % 1013,8 hPa 0,0 mm 0,0 km/h (0 Bft) O-NO 67 8,9 C 0,0 km/h (0 Bft)
12.07.2015 06:35 13,8 C 15,5 C 73 % 1013,8 hPa 0,0 mm 0,0 km/h (0 Bft) O-NO 67 9,0 C 0,0 km/h (0 Bft)
12.07.2015 06:40 14,2 C 16,9 C 75 % 1013,8 hPa 0,0 mm 0,0 km/h (0 Bft) O-NO 67 9,8 C 0,0 km/h (0 Bft)
12.07.2015 06:45 14,5 C 17,7 C 75 % 1013,8 hPa 0,0 mm 0,0 km/h (0 Bft) O-NO 67 10,1 C 0,0 km/h (0 Bft)
12.07.2015 06:50 15,0 C 19,0 C 73 % 1013,8 hPa 0,0 mm 0,0 km/h (0 Bft) O-NO 67 10,2 C 0,0 km/h (0 Bft)
12.07.2015 06:55 15,3 C 20,0 C 73 % 1013,8 hPa 0,0 mm 0,0 km/h (0 Bft) O-NO 67 10,5 C 0,0 km/h (0 Bft)
12.07.2015 07:00 15,4 C 19,4 C 73 % 1013,8 hPa 0,0 mm 0,0 km/h (0 Bft) O-NO 67 10,6 C 0,0 km/h (0 Bft)
12.07.2015 07:05 15,4 C 18,6 C 72 % 1013,8 hPa 0,0 mm 0,0 km/h (0 Bft) O-NO 67 10,4 C 0,0 km/h (0 Bft)
12.07.2015 07:10 15,4 C 17,6 C 72 % 1013,9 hPa 0,0 mm 0,0 km/h (0 Bft) O-NO 67 10,4 C 0,0 km/h (0 Bft)
12.07.2015 07:15 15,4 C 17,2 C 71 % 1013,9 hPa 0,0 mm 0,0 km/h (0 Bft) SO 135 10,2 C 0,0 km/h (0 Bft)
12.07.2015 07:20 15,1 C 16,6 C 72 % 1013,9 hPa 0,0 mm 0,0 km/h (0 Bft) NO 45 10,1 C 0,0 km/h (0 Bft)
12.07.2015 07:25 15,5 C 17,1 C 71 % 1013,9 hPa 0,0 mm 0,0 km/h (0 Bft) NO 45 10,3 C 0,0 km/h (0 Bft)
12.07.2015 07:30 15,7 C 18,3 C 72 % 1013,9 hPa 0,0 mm 0,0 km/h (0 Bft) NO 45 10,7 C 0,0 km/h (0 Bft)
12.07.2015 07:35 16,0 C 18,5 C 70 % 1013,9 hPa 0,0 mm 0,0 km/h (0 Bft) NO 45 10,5 C 0,0 km/h (0 Bft)
12.07.2015 07:40 16,6 C 19,8 C 70 % 1013,9 hPa 0,0 mm 0,0 km/h (0 Bft) NO 45 11,1 C 0,0 km/h (0 Bft)
12.07.2015 07:45 17,1 C 21,4 C 69 % 1013,9 hPa 0,0 mm 0,0 km/h (0 Bft) O 90 11,4 C 0,0 km/h (0 Bft)
12.07.2015 07:50 17,1 C 22,1 C 69 % 1013,9 hPa 0,0 mm 0,0 km/h (0 Bft) O-NO 67 11,4 C 0,0 km/h (0 Bft)
12.07.2015 07:52 17,4 C 22,1 C 69 % 1013,9 hPa 0,0 mm 0,0 km/h (0 Bft) O-NO 67 11,7 C 0,0 km/h (0 Bft)
12.07.2015 07:55 17,4 C 22,1 C 69 % 1013,9 hPa 0,0 mm 0,0 km/h (0 Bft) O-NO 67 11,7 C 0,0 km/h (0 Bft)
12.07.2015 08:00 18,4 C 24,0 C 68 % 1013,9 hPa 0,0 mm 0,0 km/h (0 Bft) NO 45 12,4 C 0,0 km/h (0 Bft)
12.07.2015 08:05 18,6 C 25,2 C 67 % 1013,9 hPa 0,0 mm 0,0 km/h (0 Bft) O-NO 67 12,3 C 0,0 km/h (0 Bft)
12.07.2015 08:10 19,0 C 26,4 C 66 % 1013,7 hPa 0,0 mm 0,0 km/h (0 Bft) NO 45 12,5 C 0,0 km/h (0 Bft)
12.07.2015 08:15 19,5 C 26,6 C 66 % 1013,7 hPa 0,0 mm 0,0 km/h (0 Bft) NO 45 13,0 C 0,0 km/h (0 Bft)
12.07.2015 08:20 19,9 C 27,0 C 65 % 1013,7 hPa 0,0 mm 0,0 km/h (0 Bft) SO 135 13,1 C 0,0 km/h (0 Bft)
12.07.2015 08:25 20,5 C 28,3 C 65 % 1013,7 hPa 0,0 mm 0,0 km/h (0 Bft) O-NO 67 13,7 C 0,0 km/h (0 Bft)
12.07.2015 08:30 20,6 C 29,5 C 65 % 1013,9 hPa 0,0 mm 0,0 km/h (0 Bft) NO 45 13,8 C 0,0 km/h (0 Bft)
12.07.2015 08:35 21,0 C 30,5 C 64 % 1013,9 hPa 0,0 mm 0,0 km/h (0 Bft) O-NO 67 13,9 C 0,0 km/h (0 Bft)
12.07.2015 08:40 21,8 C 31,2 C 64 % 1013,9 hPa 0,0 mm 0,0 km/h (0 Bft) N-NO 22 14,7 C 0,0 km/h (0 Bft)
12.07.2015 08:45 21,9 C 31,6 C 63 % 1013,9 hPa 0,0 mm 0,0 km/h (0 Bft) SO 135 14,5 C 0,0 km/h (0 Bft)
12.07.2015 08:50 22,6 C 31,8 C 62 % 1014,2 hPa 0,0 mm 1,0 km/h (0 Bft) W 270 14,9 C 3,9 km/h (1 Bft)
12.07.2015 08:55 23,1 C 31,5 C 59 % 1014,2 hPa 0,0 mm 1,8 km/h (1 Bft) SW 225 14,6 C 6,2 km/h (2 Bft)
12.07.2015 09:00 23,4 C 31,2 C 58 % 1014,2 hPa 0,0 mm 3,4 km/h (1 Bft) W-NW 292 14,7 C 7,5 km/h (2 Bft)
12.07.2015 09:05 23,3 C 30,8 C 56 % 1014,2 hPa 0,0 mm 4,1 km/h (1 Bft) W-NW 292 14,0 C 0,0 km/h (0 Bft)
12.07.2015 09:10 23,6 C 30,5 C 55 % 1014,6 hPa 0,0 mm 5,2 km/h (1 Bft) W 270 14,0 C 7,8 km/h (2 Bft)
12.07.2015 09:15 23,3 C 30,2 C 52 % 1014,6 hPa 0,0 mm 6,0 km/h (2 Bft) W-SW 247 12,9 C 9,3 km/h (2 Bft)
12.07.2015 09:20 23,2 C 29,6 C 52 % 1014,6 hPa 0,0 mm 6,2 km/h (2 Bft) W-NW 292 12,8 C 13,5 km/h (3 Bft)
12.07.2015 09:25 23,2 C 29,3 C 51 % 1014,6 hPa 0,0 mm 6,7 km/h (2 Bft) W 270 12,5 C 9,1 km/h (2 Bft)
12.07.2015 09:30 23,4 C 29,4 C 52 % 1014,9 hPa 0,0 mm 7,5 km/h (2 Bft) SW 225 13,0 C 11,4 km/h (2 Bft)
12.07.2015 09:35 23,4 C 29,3 C 50 % 1014,9 hPa 0,0 mm 7,5 km/h (2 Bft) NW 315 12,4 C 14,8 km/h (3 Bft)
12.07.2015 09:40 23,6 C 29,0 C 51 % 1014,9 hPa 0,0 mm 8,5 km/h (2 Bft) W 270 12,9 C 10,4 km/h (2 Bft)
12.07.2015 09:45 23,7 C 29,1 C 52 % 1014,9 hPa 0,0 mm 8,3 km/h (2 Bft) W 270 13,2 C 10,1 km/h (2 Bft)
12.07.2015 09:50 23,9 C 29,4 C 52 % 1015,2 hPa 0,0 mm 7,3 km/h (2 Bft) NW 315 13,4 C 8,0 km/h (2 Bft)
12.07.2015 09:55 24,0 C 29,4 C 51 % 1015,2 hPa 0,0 mm 8,0 km/h (2 Bft) W 270 13,2 C 11,9 km/h (2 Bft)
12.07.2015 10:00 24,1 C 29,2 C 51 % 1015,2 hPa 0,0 mm 8,8 km/h (2 Bft) W 270 13,3 C 7,0 km/h (2 Bft)
12.07.2015 10:05 24,4 C 29,3 C 51 % 1015,2 hPa 0,0 mm 8,8 km/h (2 Bft) NW 315 13,6 C 8,3 km/h (2 Bft)
12.07.2015 10:10 24,5 C 29,2 C 50 % 1015,2 hPa 0,0 mm 9,1 km/h (2 Bft) NW 315 13,4 C 20,2 km/h (4 Bft)
12.07.2015 10:15 24,6 C 29,3 C 50 % 1015,2 hPa 0,0 mm 9,8 km/h (2 Bft) NW 315 13,5 C 13,5 km/h (3 Bft)
12.07.2015 10:20 24,6 C 29,6 C 50 % 1015,2 hPa 0,0 mm 8,3 km/h (2 Bft) W-SW 247 13,5 C 11,7 km/h (2 Bft)
12.07.2015 10:25 24,5 C 29,4 C 49 % 1015,2 hPa 0,0 mm 8,8 km/h (2 Bft) S 180 13,1 C 6,0 km/h (2 Bft)
12.07.2015 10:30 24,3 C 29,3 C 49 % 1015,3 hPa 0,0 mm 10,4 km/h (2 Bft) W-NW 292 12,9 C 20,7 km/h (4 Bft)
12.07.2015 10:35 24,3 C 29,2 C 49 % 1015,3 hPa 0,0 mm 10,1 km/h (2 Bft) W 270 12,9 C 15,8 km/h (3 Bft)
12.07.2015 10:40 24,6 C 29,2 C 49 % 1015,3 hPa 0,0 mm 9,6 km/h (2 Bft) W-NW 292 13,2 C 7,3 km/h (2 Bft)
12.07.2015 10:45 24,7 C 29,4 C 49 % 1015,3 hPa 0,0 mm 9,3 km/h (2 Bft) W 270 13,3 C 13,2 km/h (3 Bft)
12.07.2015 10:50 25,0 C 29,7 C 49 % 1015,3 hPa 0,0 mm 7,5 km/h (2 Bft) N-NO 22 13,5 C 23,8 km/h (4 Bft)
12.07.2015 10:55 25,1 C 29,9 C 49 % 1015,3 hPa 0,0 mm 7,5 km/h (2 Bft) W-SW 247 13,6 C 2,6 km/h (1 Bft)
12.07.2015 11:00 25,1 C 29,9 C 49 % 1015,3 hPa 0,0 mm 9,1 km/h (2 Bft) W 270 13,6 C 16,3 km/h (3 Bft)
12.07.2015 11:05 25,1 C 29,6 C 48 % 1015,3 hPa 0,0 mm 9,6 km/h (2 Bft) W-NW 292 13,3 C 18,4 km/h (3 Bft)
12.07.2015 11:10 25,1 C 29,8 C 48 % 1015,6 hPa 0,0 mm 8,5 km/h (2 Bft) W-SW 247 13,3 C 11,7 km/h (2 Bft)
12.07.2015 11:15 25,1 C 29,7 C 48 % 1015,6 hPa 0,0 mm 9,3 km/h (2 Bft) W-NW 292 13,3 C 14,2 km/h (3 Bft)
12.07.2015 11:20 25,0 C 29,0 C 48 % 1015,6 hPa 0,0 mm 11,4 km/h (2 Bft) W-NW 292 13,2 C 12,7 km/h (3 Bft)
12.07.2015 11:25 25,2 C 29,1 C 48 % 1015,6 hPa 0,0 mm 10,1 km/h (2 Bft) W-SW 247 13,4 C 10,9 km/h (2 Bft)
12.07.2015 11:30 25,3 C 29,6 C 47 % 1015,4 hPa 0,0 mm 8,5 km/h (2 Bft) W-NW 292 13,2 C 11,9 km/h (2 Bft)
12.07.2015 11:35 25,4 C 29,9 C 47 % 1015,4 hPa 0,0 mm 8,5 km/h (2 Bft) S 180 13,3 C 11,4 km/h (2 Bft)
12.07.2015 11:40 25,4 C 29,8 C 48 % 1015,4 hPa 0,0 mm 8,8 km/h (2 Bft) NW 315 13,6 C 18,4 km/h (3 Bft)
12.07.2015 11:45 25,5 C 29,4 C 48 % 1015,4 hPa 0,0 mm 10,4 km/h (2 Bft) W-NW 292 13,7 C 15,5 km/h (3 Bft)
12.07.2015 11:50 25,7 C 29,1 C 47 % 1015,6 hPa 0,0 mm 12,4 km/h (3 Bft) NW 315 13,5 C 26,7 km/h (4 Bft)
12.07.2015 11:55 25,7 C 29,0 C 47 % 1015,6 hPa 0,0 mm 13,2 km/h (3 Bft) W-NW 292 13,5 C 18,4 km/h (3 Bft)
12.07.2015 12:00 25,5 C 28,9 C 47 % 1015,6 hPa 0,0 mm 13,2 km/h (3 Bft) N-NW 337 13,3 C 20,5 km/h (4 Bft)
12.07.2015 12:05 25,6 C 28,9 C 46 % 1015,6 hPa 0,0 mm 13,2 km/h (3 Bft) NW 315 13,1 C 19,9 km/h (4 Bft)
12.07.2015 12:10 25,5 C 28,7 C 46 % 1014,9 hPa 0,0 mm 13,7 km/h (3 Bft) S-SW 202 13,0 C 8,8 km/h (2 Bft)
12.07.2015 12:15 25,6 C 28,9 C 46 % 1014,9 hPa 0,0 mm 13,5 km/h (3 Bft) W-SW 247 13,1 C 16,1 km/h (3 Bft)
12.07.2015 12:20 25,6 C 29,2 C 45 % 1014,9 hPa 0,0 mm 11,1 km/h (2 Bft) O-NO 67 12,8 C 28,5 km/h (4 Bft)
12.07.2015 12:25 25,6 C 29,1 C 44 % 1014,9 hPa 0,0 mm 11,1 km/h (2 Bft) W 270 12,4 C 12,4 km/h (3 Bft)
12.07.2015 12:30 25,7 C 29,3 C 46 % 1015,3 hPa 0,0 mm 10,4 km/h (2 Bft) O-SO 112 13,2 C 7,8 km/h (2 Bft)
12.07.2015 12:35 25,8 C 29,6 C 45 % 1015,3 hPa 0,0 mm 9,3 km/h (2 Bft) W-NW 292 13,0 C 14,2 km/h (3 Bft)
12.07.2015 12:40 25,8 C 29,1 C 45 % 1015,3 hPa 0,0 mm 11,9 km/h (2 Bft) W 270 13,0 C 31,8 km/h (5 Bft)
12.07.2015 12:45 25,8 C 28,9 C 45 % 1015,3 hPa 0,0 mm 13,7 km/h (3 Bft) W 270 13,0 C 23,3 km/h (4 Bft)
12.07.2015 12:50 25,8 C 28,9 C 45 % 1015,0 hPa 0,0 mm 13,2 km/h (3 Bft) W-NW 292 13,0 C 13,2 km/h (3 Bft)
12.07.2015 12:55 25,8 C 29,2 C 45 % 1015,0 hPa 0,0 mm 11,1 km/h (2 Bft) W-NW 292 13,0 C 12,2 km/h (2 Bft)
12.07.2015 13:00 25,9 C 29,3 C 45 % 1015,0 hPa 0,0 mm 11,1 km/h (2 Bft) W 270 13,0 C 5,7 km/h (1 Bft)
12.07.2015 13:05 26,2 C 29,4 C 45 % 1015,0 hPa 0,0 mm 11,4 km/h (2 Bft) N-NO 22 13,3 C 11,1 km/h (2 Bft)
12.07.2015 13:10 26,2 C 29,6 C 44 % 1014,9 hPa 0,0 mm 9,8 km/h (2 Bft) W-NW 292 13,0 C 10,6 km/h (2 Bft)
12.07.2015 13:15 26,1 C 29,4 C 43 % 1014,9 hPa 0,0 mm 10,9 km/h (2 Bft) W 270 12,5 C 7,3 km/h (2 Bft)
12.07.2015 13:20 26,3 C 29,3 C 42 % 1014,9 hPa 0,0 mm 10,9 km/h (2 Bft) N-NW 337 12,3 C 10,6 km/h (2 Bft)
12.07.2015 13:25 26,2 C 28,8 C 42 % 1014,9 hPa 0,0 mm 9,8 km/h (2 Bft) SW 225 12,3 C 7,0 km/h (2 Bft)
12.07.2015 13:30 26,5 C 28,6 C 43 % 1014,8 hPa 0,0 mm 8,3 km/h (2 Bft) S 180 12,9 C 2,6 km/h (1 Bft)
12.07.2015 13:35 26,6 C 28,6 C 42 % 1014,8 hPa 0,0 mm 8,3 km/h (2 Bft) W-NW 292 12,6 C 16,3 km/h (3 Bft)
12.07.2015 13:40 26,3 C 28,4 C 43 % 1014,8 hPa 0,0 mm 8,0 km/h (2 Bft) NW 315 12,7 C 6,2 km/h (2 Bft)
12.07.2015 13:45 26,5 C 29,0 C 44 % 1014,8 hPa 0,0 mm 7,5 km/h (2 Bft) NW 315 13,2 C 13,5 km/h (3 Bft)
12.07.2015 13:50 26,8 C 29,9 C 43 % 1014,5 hPa 0,0 mm 9,6 km/h (2 Bft) NW 315 13,2 C 11,7 km/h (2 Bft)
12.07.2015 13:53 27,0 C 30,3 C 44 % 1014,5 hPa 0,0 mm 9,6 km/h (2 Bft) W 270 13,7 C 7,3 km/h (2 Bft)
12.07.2015 13:55 27,0 C 30,3 C 44 % 1014,5 hPa 0,0 mm 9,6 km/h (2 Bft) W 270 13,7 C 7,3 km/h (2 Bft)
12.07.2015 14:00 27,1 C 30,6 C 43 % 1014,5 hPa 0,0 mm 8,0 km/h (2 Bft) W-SW 247 13,4 C 6,7 km/h (2 Bft)
12.07.2015 14:05 26,9 C 30,9 C 43 % 1014,5 hPa 0,0 mm 7,3 km/h (2 Bft) NW 315 13,2 C 2,6 km/h (1 Bft)
12.07.2015 14:10 26,8 C 31,0 C 42 % 1014,4 hPa 0,0 mm 8,3 km/h (2 Bft) W 270 12,8 C 16,6 km/h (3 Bft)
12.07.2015 14:15 26,9 C 30,7 C 42 % 1014,4 hPa 0,0 mm 9,3 km/h (2 Bft) SO 135 12,9 C 2,6 km/h (1 Bft)
12.07.2015 14:20 27,4 C 31,3 C 43 % 1014,4 hPa 0,0 mm 8,3 km/h (2 Bft) W-SW 247 13,7 C 30,6 km/h (5 Bft)
12.07.2015 14:25 27,2 C 31,2 C 41 % 1014,4 hPa 0,0 mm 8,0 km/h (2 Bft) NW 315 12,8 C 12,7 km/h (3 Bft)
12.07.2015 14:30 26,8 C 30,6 C 42 % 1014,0 hPa 0,0 mm 12,2 km/h (2 Bft) NW 315 12,8 C 15,8 km/h (3 Bft)
12.07.2015 14:35 27,0 C 30,5 C 41 % 1014,0 hPa 0,0 mm 11,4 km/h (2 Bft) W 270 12,6 C 9,6 km/h (2 Bft)
12.07.2015 14:40 26,8 C 30,8 C 41 % 1014,0 hPa 0,0 mm 8,0 km/h (2 Bft) W 270 12,4 C 6,0 km/h (2 Bft)
12.07.2015 14:45 26,9 C 30,8 C 41 % 1014,0 hPa 0,0 mm 8,0 km/h (2 Bft) W-SW 247 12,5 C 15,0 km/h (3 Bft)
12.07.2015 14:50 26,9 C 30,9 C 42 % 1013,8 hPa 0,0 mm 9,6 km/h (2 Bft) NW 315 12,9 C 14,5 km/h (3 Bft)
12.07.2015 14:55 26,8 C 30,6 C 41 % 1013,8 hPa 0,0 mm 10,9 km/h (2 Bft) W-SW 247 12,4 C 14,2 km/h (3 Bft)
12.07.2015 15:00 26,6 C 30,2 C 42 % 1013,8 hPa 0,0 mm 10,4 km/h (2 Bft) W-NW 292 12,6 C 9,6 km/h (2 Bft)
12.07.2015 15:05 26,7 C 30,2 C 43 % 1013,8 hPa 0,0 mm 9,6 km/h (2 Bft) W 270 13,1 C 19,4 km/h (3 Bft)
12.07.2015 15:10 26,9 C 30,3 C 43 % 1013,6 hPa 0,0 mm 9,3 km/h (2 Bft) NW 315 13,2 C 12,2 km/h (2 Bft)
12.07.2015 15:15 26,9 C 30,4 C 43 % 1013,6 hPa 0,0 mm 9,3 km/h (2 Bft) W 270 13,2 C 18,4 km/h (3 Bft)
12.07.2015 15:20 26,5 C 30,1 C 42 % 1013,6 hPa 0,0 mm 8,0 km/h (2 Bft) S-SO 157 12,5 C 6,5 km/h (2 Bft)
12.07.2015 15:25 26,4 C 29,9 C 42 % 1013,6 hPa 0,0 mm 8,5 km/h (2 Bft) W 270 12,4 C 12,4 km/h (3 Bft)
12.07.2015 15:30 26,8 C 30,2 C 43 % 1013,2 hPa 0,0 mm 7,0 km/h (2 Bft) N-NW 337 13,2 C 10,1 km/h (2 Bft)
12.07.2015 15:35 27,0 C 30,8 C 41 % 1013,2 hPa 0,0 mm 7,5 km/h (2 Bft) NW 315 12,6 C 17,9 km/h (3 Bft)
12.07.2015 15:40 27,0 C 30,8 C 40 % 1013,2 hPa 0,0 mm 9,3 km/h (2 Bft) W-SW 247 12,2 C 6,7 km/h (2 Bft)
12.07.2015 15:45 26,8 C 31,0 C 40 % 1013,2 hPa 0,0 mm 9,3 km/h (2 Bft) W-NW 292 12,1 C 7,3 km/h (2 Bft)
12.07.2015 15:50 27,0 C 31,2 C 40 % 1013,2 hPa 0,0 mm 9,1 km/h (2 Bft) W-NW 292 12,2 C 14,2 km/h (3 Bft)
12.07.2015 15:55 26,9 C 30,7 C 41 % 1013,2 hPa 0,0 mm 10,4 km/h (2 Bft) W-NW 292 12,5 C 12,2 km/h (2 Bft)
12.07.2015 16:00 27,1 C 30,9 C 41 % 1013,2 hPa 0,0 mm 9,6 km/h (2 Bft) NW 315 12,7 C 10,4 km/h (2 Bft)
12.07.2015 16:05 26,8 C 30,6 C 41 % 1013,2 hPa 0,0 mm 9,3 km/h (2 Bft) N-NW 337 12,4 C 9,8 km/h (2 Bft)
12.07.2015 16:10 26,3 C 29,8 C 40 % 1012,8 hPa 0,0 mm 12,2 km/h (2 Bft) N-NW 337 11,6 C 13,7 km/h (3 Bft)
12.07.2015 16:15 26,0 C 29,1 C 41 % 1012,8 hPa 0,0 mm 11,1 km/h (2 Bft) SW 225 11,7 C 11,9 km/h (2 Bft)
12.07.2015 16:20 25,5 C 28,6 C 43 % 1012,8 hPa 0,0 mm 8,8 km/h (2 Bft) W-NW 292 12,0 C 12,9 km/h (3 Bft)
12.07.2015 16:25 25,4 C 28,7 C 43 % 1012,8 hPa 0,0 mm 8,8 km/h (2 Bft) W 270 11,9 C 14,0 km/h (3 Bft)
12.07.2015 16:30 25,3 C 28,4 C 43 % 1012,8 hPa 0,0 mm 8,5 km/h (2 Bft) S-SW 202 11,8 C 3,1 km/h (1 Bft)
12.07.2015 16:35 25,4 C 29,3 C 43 % 1012,8 hPa 0,0 mm 8,8 km/h (2 Bft) W-SW 247 11,9 C 17,3 km/h (3 Bft)
12.07.2015 16:40 25,5 C 30,4 C 43 % 1012,8 hPa 0,0 mm 7,0 km/h (2 Bft) SW 225 12,0 C 16,3 km/h (3 Bft)
12.07.2015 16:45 25,4 C 30,7 C 43 % 1012,8 hPa 0,0 mm 8,5 km/h (2 Bft) S 180 11,9 C 13,2 km/h (3 Bft)
12.07.2015 16:50 25,4 C 30,8 C 43 % 1012,7 hPa 0,0 mm 9,8 km/h (2 Bft) W-NW 292 11,9 C 23,0 km/h (4 Bft)
12.07.2015 16:55 25,4 C 30,2 C 43 % 1012,7 hPa 0,0 mm 10,1 km/h (2 Bft) W 270 11,9 C 11,7 km/h (2 Bft)
12.07.2015 17:00 25,4 C 29,9 C 42 % 1012,7 hPa 0,0 mm 10,9 km/h (2 Bft) W 270 11,5 C 10,4 km/h (2 Bft)
12.07.2015 17:05 25,5 C 30,2 C 42 % 1012,7 hPa 0,0 mm 9,1 km/h (2 Bft) W 270 11,6 C 12,2 km/h (2 Bft)
12.07.2015 17:10 25,3 C 29,1 C 41 % 1012,4 hPa 0,0 mm 8,5 km/h (2 Bft) W 270 11,1 C 10,4 km/h (2 Bft)
12.07.2015 17:15 25,2 C 28,0 C 41 % 1012,4 hPa 0,0 mm 9,6 km/h (2 Bft) W-SW 247 11,0 C 21,2 km/h (4 Bft)
12.07.2015 17:20 25,1 C 27,0 C 41 % 1012,4 hPa 0,0 mm 10,9 km/h (2 Bft) W-NW 292 10,9 C 11,4 km/h (2 Bft)
12.07.2015 17:25 25,1 C 26,6 C 42 % 1012,4 hPa 0,0 mm 10,1 km/h (2 Bft) W-SW 247 11,3 C 11,9 km/h (2 Bft)
12.07.2015 17:30 25,1 C 26,3 C 43 % 1012,7 hPa 0,0 mm 10,9 km/h (2 Bft) N-NW 337 11,6 C 13,2 km/h (3 Bft)
12.07.2015 17:35 25,0 C 26,1 C 42 % 1012,7 hPa 0,0 mm 12,4 km/h (3 Bft) NW 315 11,2 C 9,8 km/h (2 Bft)
12.07.2015 17:40 25,1 C 26,0 C 42 % 1012,7 hPa 0,0 mm 14,0 km/h (3 Bft) W-NW 292 11,3 C 15,3 km/h (3 Bft)
12.07.2015 17:45 25,0 C 25,9 C 41 % 1012,7 hPa 0,0 mm 14,2 km/h (3 Bft) W 270 10,8 C 18,6 km/h (3 Bft)
12.07.2015 17:50 25,0 C 26,0 C 42 % 1012,6 hPa 0,0 mm 10,6 km/h (2 Bft) W-SW 247 11,2 C 10,4 km/h (2 Bft)
12.07.2015 17:55 25,0 C 26,2 C 43 % 1012,6 hPa 0,0 mm 8,5 km/h (2 Bft) S-SW 202 11,5 C 6,2 km/h (2 Bft)
12.07.2015 18:00 24,9 C 26,2 C 42 % 1012,6 hPa 0,0 mm 9,3 km/h (2 Bft) NO 45 11,1 C 7,8 km/h (2 Bft)
12.07.2015 18:05 24,8 C 26,3 C 42 % 1012,6 hPa 0,0 mm 9,3 km/h (2 Bft) N-NW 337 11,0 C 6,0 km/h (2 Bft)
12.07.2015 18:10 24,7 C 26,0 C 42 % 1012,5 hPa 0,0 mm 10,6 km/h (2 Bft) N-NW 337 10,9 C 12,4 km/h (3 Bft)
12.07.2015 18:15 24,8 C 26,1 C 43 % 1012,5 hPa 0,0 mm 9,8 km/h (2 Bft) W-NW 292 11,4 C 5,7 km/h (1 Bft)
12.07.2015 18:20 24,9 C 26,0 C 43 % 1012,5 hPa 0,0 mm 9,3 km/h (2 Bft) W 270 11,4 C 8,5 km/h (2 Bft)
12.07.2015 18:25 24,8 C 25,9 C 44 % 1012,5 hPa 0,0 mm 9,8 km/h (2 Bft) NW 315 11,7 C 6,2 km/h (2 Bft)
12.07.2015 18:30 24,5 C 25,7 C 42 % 1012,4 hPa 0,0 mm 11,1 km/h (2 Bft) NW 315 10,7 C 17,6 km/h (3 Bft)
12.07.2015 18:35 24,5 C 25,5 C 43 % 1012,4 hPa 0,0 mm 9,1 km/h (2 Bft) W-SW 247 11,1 C 12,9 km/h (3 Bft)
12.07.2015 18:40 24,5 C 25,6 C 43 % 1012,4 hPa 0,0 mm 8,5 km/h (2 Bft) NW 315 11,1 C 7,0 km/h (2 Bft)
12.07.2015 18:45 24,5 C 25,7 C 44 % 1012,4 hPa 0,0 mm 8,8 km/h (2 Bft) SO 135 11,4 C 14,0 km/h (3 Bft)
12.07.2015 18:50 24,1 C 25,5 C 44 % 1012,6 hPa 0,0 mm 7,8 km/h (2 Bft) W-NW 292 11,1 C 5,7 km/h (1 Bft)
12.07.2015 18:55 24,0 C 25,2 C 44 % 1012,6 hPa 0,0 mm 6,5 km/h (2 Bft) W-NW 292 11,0 C 7,3 km/h (2 Bft)
12.07.2015 19:00 23,8 C 24,8 C 45 % 1012,6 hPa 0,0 mm 3,9 km/h (1 Bft) SO 135 11,1 C 3,4 km/h (1 Bft)
12.07.2015 19:05 23,7 C 24,7 C 46 % 1012,6 hPa 0,0 mm 2,6 km/h (1 Bft) W-NW 292 11,4 C 2,6 km/h (1 Bft)
12.07.2015 19:10 23,5 C 24,4 C 46 % 1012,4 hPa 0,0 mm 1,8 km/h (1 Bft) W-SW 247 11,2 C 0,0 km/h (0 Bft)
12.07.2015 19:15 23,3 C 24,2 C 47 % 1012,4 hPa 0,0 mm 1,6 km/h (1 Bft) S-SW 202 11,3 C 2,6 km/h (1 Bft)
12.07.2015 19:20 23,1 C 23,9 C 48 % 1012,4 hPa 0,0 mm 0,5 km/h (0 Bft) S-SO 157 11,5 C 0,0 km/h (0 Bft)
12.07.2015 19:25 23,0 C 23,9 C 48 % 1012,4 hPa 0,0 mm 0,8 km/h (0 Bft) S-SO 157 11,4 C 0,0 km/h (0 Bft)
12.07.2015 19:30 23,0 C 23,9 C 48 % 1012,2 hPa 0,0 mm 2,6 km/h (1 Bft) W-SW 247 11,4 C 4,4 km/h (1 Bft)
12.07.2015 19:35 23,0 C 23,9 C 48 % 1012,2 hPa 0,0 mm 3,4 km/h (1 Bft) S-SW 202 11,4 C 4,4 km/h (1 Bft)
12.07.2015 19:40 22,9 C 23,7 C 49 % 1012,2 hPa 0,0 mm 2,8 km/h (1 Bft) SW 225 11,6 C 2,6 km/h (1 Bft)
12.07.2015 19:45 22,8 C 23,6 C 49 % 1012,2 hPa 0,0 mm 1,8 km/h (1 Bft) S 180 11,5 C 3,4 km/h (1 Bft)
12.07.2015 19:50 22,6 C 23,6 C 51 % 1012,4 hPa 0,0 mm 0,8 km/h (0 Bft) S-SW 202 11,9 C 2,6 km/h (1 Bft)
12.07.2015 19:54 22,5 C 23,4 C 51 % 1012,4 hPa 0,0 mm 0,8 km/h (0 Bft) S 180 11,8 C 3,1 km/h (1 Bft)
12.07.2015 20:00 22,5 C 23,4 C 49 % 1012,4 hPa 0,0 mm 0,8 km/h (0 Bft) S-SO 157 11,2 C 0,0 km/h (0 Bft)
12.07.2015 20:05 22,5 C 23,6 C 49 % 1012,4 hPa 0,0 mm 1,8 km/h (1 Bft) W-SW 247 11,2 C 3,1 km/h (1 Bft)
12.07.2015 20:10 22,4 C 23,4 C 49 % 1012,4 hPa 0,0 mm 2,1 km/h (1 Bft) S 180 11,2 C 4,9 km/h (1 Bft)
12.07.2015 20:15 22,4 C 23,2 C 49 % 1012,4 hPa 0,0 mm 2,1 km/h (1 Bft) S-SW 202 11,2 C 4,1 km/h (1 Bft)
12.07.2015 20:20 22,4 C 23,1 C 48 % 1012,4 hPa 0,0 mm 3,1 km/h (1 Bft) S 180 10,8 C 4,1 km/h (1 Bft)
12.07.2015 20:25 22,2 C 22,9 C 48 % 1012,4 hPa 0,0 mm 3,9 km/h (1 Bft) S 180 10,7 C 4,9 km/h (1 Bft)
12.07.2015 20:30 22,2 C 22,8 C 48 % 1012,8 hPa 0,0 mm 3,9 km/h (1 Bft) SW 225 10,7 C 6,5 km/h (2 Bft)
12.07.2015 20:35 22,1 C 22,6 C 48 % 1012,8 hPa 0,0 mm 4,4 km/h (1 Bft) W-SW 247 10,6 C 6,5 km/h (2 Bft)
12.07.2015 20:40 22,0 C 22,4 C 48 % 1012,8 hPa 0,0 mm 4,4 km/h (1 Bft) W-SW 247 10,5 C 4,9 km/h (1 Bft)
12.07.2015 20:45 21,8 C 22,2 C 48 % 1012,8 hPa 0,0 mm 3,4 km/h (1 Bft) N-NO 22 10,3 C 4,7 km/h (1 Bft)
12.07.2015 20:50 21,7 C 21,9 C 49 % 1012,9 hPa 0,0 mm 3,4 km/h (1 Bft) SW 225 10,5 C 7,0 km/h (2 Bft)
12.07.2015 20:55 21,6 C 21,8 C 49 % 1012,9 hPa 0,0 mm 3,9 km/h (1 Bft) W-NW 292 10,4 C 3,4 km/h (1 Bft)
12.07.2015 21:00 21,5 C 21,6 C 49 % 1012,9 hPa 0,0 mm 3,1 km/h (1 Bft) W-SW 247 10,3 C 7,5 km/h (2 Bft)
12.07.2015 21:05 21,5 C 21,6 C 50 % 1012,9 hPa 0,0 mm 3,6 km/h (1 Bft) N-NO 22 10,6 C 4,4 km/h (1 Bft)
12.07.2015 21:10 21,2 C 21,3 C 52 % 1013,2 hPa 0,0 mm 5,2 km/h (1 Bft) W 270 10,9 C 11,7 km/h (2 Bft)
12.07.2015 21:15 21,2 C 21,2 C 53 % 1013,2 hPa 0,0 mm 6,0 km/h (2 Bft) NW 315 11,2 C 7,8 km/h (2 Bft)
12.07.2015 21:20 21,0 C 21,0 C 54 % 1013,2 hPa 0,0 mm 8,0 km/h (2 Bft) W-NW 292 11,3 C 8,0 km/h (2 Bft)
12.07.2015 21:25 20,8 C 20,8 C 55 % 1013,2 hPa 0,0 mm 7,8 km/h (2 Bft) W-NW 292 11,4 C 10,9 km/h (2 Bft)
12.07.2015 21:30 20,4 C 20,4 C 56 % 1013,6 hPa 0,0 mm 8,0 km/h (2 Bft) NW 315 11,3 C 9,1 km/h (2 Bft)
12.07.2015 21:35 20,3 C 20,2 C 57 % 1013,6 hPa 0,0 mm 7,5 km/h (2 Bft) N-NW 337 11,5 C 4,4 km/h (1 Bft)
12.07.2015 21:40 20,0 C 19,9 C 57 % 1013,6 hPa 0,0 mm 6,2 km/h (2 Bft) W 270 11,2 C 11,9 km/h (2 Bft)
12.07.2015 21:45 20,0 C 19,9 C 58 % 1013,6 hPa 0,0 mm 7,0 km/h (2 Bft) W-SW 247 11,5 C 5,2 km/h (1 Bft)
12.07.2015 21:50 19,6 C 19,5 C 58 % 1014,0 hPa 0,0 mm 5,4 km/h (1 Bft) W 270 11,1 C 0,0 km/h (0 Bft)
12.07.2015 21:55 19,4 C 19,3 C 58 % 1014,0 hPa 0,0 mm 2,6 km/h (1 Bft) W 270 10,9 C 0,0 km/h (0 Bft)
12.07.2015 22:00 19,1 C 19,0 C 59 % 1014,0 hPa 0,0 mm 1,8 km/h (1 Bft) S-SW 202 10,9 C 0,0 km/h (0 Bft)
12.07.2015 22:05 18,9 C 18,8 C 59 % 1014,0 hPa 0,0 mm 1,3 km/h (1 Bft) S-SW 202 10,7 C 0,0 km/h (0 Bft)
12.07.2015 22:10 18,9 C 18,7 C 59 % 1014,2 hPa 0,0 mm 1,3 km/h (1 Bft) S 180 10,7 C 5,7 km/h (1 Bft)
12.07.2015 22:15 18,9 C 18,8 C 59 % 1014,2 hPa 0,0 mm 2,6 km/h (1 Bft) SO 135 10,7 C 3,1 km/h (1 Bft)
12.07.2015 22:20 18,9 C 18,8 C 59 % 1014,2 hPa 0,0 mm 2,6 km/h (1 Bft) W-SW 247 10,7 C 2,8 km/h (1 Bft)
12.07.2015 22:25 19,0 C 18,8 C 58 % 1014,2 hPa 0,0 mm 2,1 km/h (1 Bft) W 270 10,5 C 7,5 km/h (2 Bft)
12.07.2015 22:30 18,9 C 18,8 C 59 % 1014,4 hPa 0,0 mm 2,8 km/h (1 Bft) W 270 10,7 C 8,8 km/h (2 Bft)
12.07.2015 22:35 18,9 C 18,8 C 59 % 1014,4 hPa 0,0 mm 4,4 km/h (1 Bft) NW 315 10,7 C 7,5 km/h (2 Bft)
12.07.2015 22:40 18,9 C 18,8 C 59 % 1014,4 hPa 0,0 mm 5,4 km/h (1 Bft) N-NW 337 10,7 C 7,8 km/h (2 Bft)
12.07.2015 22:45 18,8 C 18,7 C 59 % 1014,4 hPa 0,0 mm 4,1 km/h (1 Bft) W 270 10,6 C 3,9 km/h (1 Bft)
12.07.2015 22:50 18,7 C 18,6 C 59 % 1014,7 hPa 0,0 mm 2,8 km/h (1 Bft) NW 315 10,5 C 4,9 km/h (1 Bft)
12.07.2015 22:55 18,7 C 18,6 C 59 % 1014,7 hPa 0,0 mm 1,6 km/h (1 Bft) S-SW 202 10,5 C 0,0 km/h (0 Bft)
12.07.2015 23:00 18,6 C 18,5 C 59 % 1014,7 hPa 0,0 mm 1,3 km/h (1 Bft) W-NW 292 10,4 C 6,5 km/h (2 Bft)
12.07.2015 23:05 18,7 C 18,6 C 59 % 1014,7 hPa 0,0 mm 2,3 km/h (1 Bft) NW 315 10,5 C 8,5 km/h (2 Bft)
12.07.2015 23:10 18,6 C 18,5 C 58 % 1014,7 hPa 0,0 mm 5,4 km/h (1 Bft) W 270 10,2 C 14,0 km/h (3 Bft)
12.07.2015 23:15 18,6 C 18,5 C 58 % 1014,7 hPa 0,0 mm 7,0 km/h (2 Bft) SW 225 10,2 C 21,5 km/h (4 Bft)
12.07.2015 23:20 18,5 C 18,4 C 58 % 1014,7 hPa 0,0 mm 7,5 km/h (2 Bft) W 270 10,1 C 12,9 km/h (3 Bft)
12.07.2015 23:25 18,4 C 18,4 C 58 % 1014,7 hPa 0,0 mm 8,3 km/h (2 Bft) W-NW 292 10,0 C 14,2 km/h (3 Bft)
12.07.2015 23:30 18,2 C 18,2 C 58 % 1014,8 hPa 0,0 mm 6,5 km/h (2 Bft) N-NO 22 9,8 C 0,0 km/h (0 Bft)
12.07.2015 23:35 18,0 C 18,0 C 58 % 1014,8 hPa 0,0 mm 3,6 km/h (1 Bft) W 270 9,6 C 6,5 km/h (2 Bft)
12.07.2015 23:40 17,9 C 17,8 C 58 % 1014,8 hPa 0,0 mm 0,8 km/h (0 Bft) S 180 9,5 C 0,0 km/h (0 Bft)
12.07.2015 23:45 17,7 C 17,7 C 59 % 1014,8 hPa 0,0 mm 0,8 km/h (0 Bft) W 270 9,6 C 0,0 km/h (0 Bft)
12.07.2015 23:50 17,7 C 17,6 C 59 % 1014,8 hPa 0,0 mm 1,3 km/h (1 Bft) NW 315 9,6 C 3,4 km/h (1 Bft)
12.07.2015 23:55 17,7 C 17,6 C 59 % 1014,8 hPa 0,0 mm 1,8 km/h (1 Bft) W-SW 247 9,6 C 4,9 km/h (1 Bft)
_ Min-Zeit 05:40 05:40 16:10 19:45 - 08:45 - - 05:15 23:45
Minimum _ 12,8 C 12,6 C 40 % 1012,2 hPa - 0,0 km/h (0 Bft) - - 8,6 C 0,0 km/h (0 Bft)
_ Max-Zeit 14:20 08:50 06:20 12:05 23:55 17:45 - - 08:50 12:40
Maximum _ 27,4 C 31,8 C 77 % 1015,6 hPa 0,0 mm 14,2 km/h
W (3 Bft)
- - 14,9 C 31,8 km/h
W (5 Bft)
Durchschnitt _ 20,8 C 23,0 C 56 % 1013,9 hPa #0,0 mm 5,3 km/h (1 Bft) W - 11,3 C 7,1 km/h (2 Bft)